createdAt,value
2019-04-29T00:01:19.244Z,9.00
2019-04-29T00:03:52.937Z,9.00
2019-04-29T00:06:26.688Z,10.75
2019-04-29T00:09:00.414Z,11.25
2019-04-29T00:11:34.116Z,12.00
2019-04-29T00:14:07.824Z,11.40
2019-04-29T00:16:41.531Z,10.25
2019-04-29T00:19:15.224Z,12.75
2019-04-29T00:21:48.941Z,11.60
2019-04-29T00:24:22.653Z,11.50
2019-04-29T00:26:56.423Z,12.00
2019-04-29T00:29:30.133Z,12.00
2019-04-29T00:32:03.844Z,9.40
2019-04-29T00:34:37.510Z,11.25
2019-04-29T00:37:11.237Z,9.75
2019-04-29T00:39:45.003Z,11.80
2019-04-29T00:42:18.715Z,11.00
2019-04-29T00:44:52.423Z,12.25
2019-04-29T00:47:26.133Z,12.50
2019-04-29T00:49:59.846Z,9.40
2019-04-29T00:52:33.546Z,11.00
2019-04-29T00:55:07.244Z,12.00
2019-04-29T00:57:40.954Z,11.00
2019-04-29T01:00:14.660Z,12.00
2019-04-29T01:02:48.366Z,12.00
2019-04-29T01:05:22.106Z,12.00
2019-04-29T01:07:55.866Z,10.00
2019-04-29T01:10:29.724Z,13.25
2019-04-29T01:13:03.456Z,12.25
2019-04-29T01:15:37.217Z,11.80
2019-04-29T01:18:10.947Z,12.00
2019-04-29T01:20:44.646Z,13.25
2019-04-29T01:23:18.346Z,13.00
2019-04-29T01:25:52.083Z,11.00
2019-04-29T01:28:25.780Z,12.00
2019-04-29T01:31:04.260Z,10.50
2019-04-29T01:33:38.226Z,13.00
2019-04-29T01:36:11.921Z,9.00
2019-04-29T01:38:48.590Z,12.00
2019-04-29T01:41:21.026Z,12.00
2019-04-29T01:43:54.722Z,12.50
2019-04-29T01:46:28.694Z,9.50
2019-04-29T01:49:02.404Z,11.75
2019-04-29T01:51:36.106Z,12.50
2019-04-29T01:54:09.816Z,11.75
2019-04-29T01:56:43.521Z,12.00
2019-04-29T01:59:17.189Z,11.80
2019-04-29T02:01:50.909Z,11.00
2019-04-29T02:04:24.602Z,11.75
2019-04-29T02:06:58.326Z,11.00
2019-04-29T02:09:32.044Z,12.00
2019-04-29T02:12:05.741Z,11.25
2019-04-29T02:14:39.446Z,12.00
2019-04-29T02:17:13.733Z,11.40
2019-04-29T02:19:47.432Z,13.60
2019-04-29T02:22:21.152Z,12.00
2019-04-29T02:24:54.836Z,12.00
2019-04-29T02:27:28.585Z,9.80
2019-04-29T02:30:03.443Z,9.50
2019-04-29T02:32:37.508Z,11.80
2019-04-29T02:35:11.214Z,9.25
2019-04-29T02:37:44.919Z,9.75
2019-04-29T02:40:18.637Z,11.25
2019-04-29T02:42:52.346Z,13.00
2019-04-29T02:45:26.038Z,11.00
2019-04-29T02:47:59.750Z,12.50
2019-04-29T02:50:33.536Z,15.20
2019-04-29T02:53:07.261Z,14.75
2019-04-29T02:55:41.251Z,12.25
2019-04-29T02:58:14.946Z,14.00
2019-04-29T03:00:48.663Z,12.00
2019-04-29T03:03:22.327Z,11.00
2019-04-29T03:05:56.065Z,14.75
2019-04-29T03:08:29.762Z,16.00
2019-04-29T03:11:03.459Z,12.00
2019-04-29T03:13:37.170Z,11.00
2019-04-29T03:16:10.886Z,14.00
2019-04-29T03:18:44.579Z,17.00
2019-04-29T03:21:18.300Z,14.00
2019-04-29T03:23:52.102Z,11.50
2019-04-29T03:26:25.912Z,14.40
2019-04-29T03:28:59.757Z,11.00
2019-04-29T03:31:39.090Z,11.00
2019-04-29T03:34:08.870Z,14.00
2019-04-29T03:36:42.572Z,12.00
2019-04-29T03:39:16.364Z,16.75
2019-04-29T03:41:50.088Z,17.00
2019-04-29T03:44:23.796Z,13.50
2019-04-29T03:46:57.497Z,14.00
2019-04-29T03:49:31.217Z,14.00
2019-04-29T03:52:04.929Z,14.60
2019-04-29T03:54:38.722Z,20.25
2019-04-29T03:57:12.459Z,18.25
2019-04-29T03:59:46.166Z,14.00
2019-04-29T04:02:19.867Z,20.00
2019-04-29T04:04:53.663Z,14.25
2019-04-29T04:07:27.386Z,17.00
2019-04-29T04:10:01.141Z,17.25
2019-04-29T04:12:34.869Z,17.75
2019-04-29T04:15:08.677Z,17.50
2019-04-29T04:17:42.395Z,16.00
2019-04-29T04:20:16.103Z,18.50
2019-04-29T04:22:49.891Z,18.00
2019-04-29T04:25:23.583Z,18.00
2019-04-29T04:27:57.301Z,17.00
2019-04-29T04:30:30.993Z,17.00
2019-04-29T04:33:04.702Z,18.50
2019-04-29T04:35:38.429Z,16.50
2019-04-29T04:38:13.175Z,17.33
2019-04-29T04:40:46.909Z,17.80
2019-04-29T04:43:20.602Z,14.75
2019-04-29T04:45:54.313Z,16.00
2019-04-29T04:48:28.002Z,18.00
2019-04-29T04:51:01.791Z,18.50
2019-04-29T04:53:35.504Z,17.00
2019-04-29T04:56:09.199Z,17.50
2019-04-29T04:58:42.940Z,17.80
2019-04-29T05:01:16.659Z,20.25
2019-04-29T05:03:50.386Z,17.25
2019-04-29T05:06:24.098Z,17.25
2019-04-29T05:08:57.804Z,18.25
2019-04-29T05:11:31.510Z,18.50
2019-04-29T05:14:05.223Z,19.00
2019-04-29T05:16:38.922Z,19.25
2019-04-29T05:19:13.702Z,18.60
2019-04-29T05:21:47.428Z,19.75
2019-04-29T05:24:21.127Z,17.00
2019-04-29T05:26:54.836Z,18.50
2019-04-29T05:29:28.899Z,20.25
2019-04-29T05:32:03.704Z,20.75
2019-04-29T05:34:41.710Z,17.75
2019-04-29T05:37:13.596Z,21.20
2019-04-29T05:39:47.310Z,17.20
2019-04-29T05:42:21.036Z,17.00
2019-04-29T05:44:54.732Z,18.50
2019-04-29T05:47:28.457Z,20.00
2019-04-29T05:50:02.159Z,18.00
2019-04-29T05:52:39.529Z,18.50
2019-04-29T05:55:13.768Z,17.25
2019-04-29T05:57:46.985Z,20.25
2019-04-29T06:00:23.309Z,20.50
2019-04-29T06:02:56.074Z,18.25
2019-04-29T06:05:29.787Z,18.25
2019-04-29T06:08:03.510Z,17.80
2019-04-29T06:10:37.215Z,19.25
2019-04-29T06:13:10.929Z,22.00
2019-04-29T06:15:44.638Z,19.60
2019-04-29T06:18:22.216Z,16.00
2019-04-29T06:21:07.878Z,16.25
2019-04-29T06:23:29.195Z,16.50
2019-04-29T06:26:02.904Z,21.25
2019-04-29T06:28:36.600Z,19.80
2019-04-29T06:31:10.311Z,16.25
2019-04-29T06:33:44.010Z,19.75
2019-04-29T06:36:18.724Z,19.20
2019-04-29T06:38:53.782Z,17.75
2019-04-29T06:41:27.518Z,17.00
2019-04-29T06:44:06.658Z,16.00
2019-04-29T06:46:36.631Z,17.60
2019-04-29T06:49:10.922Z,17.00
2019-04-29T06:51:44.713Z,15.75
2019-04-29T06:54:18.443Z,15.60
2019-04-29T06:56:52.144Z,18.00
2019-04-29T06:59:25.862Z,17.00
2019-04-29T07:01:59.573Z,18.25
2019-04-29T07:04:38.408Z,16.80
2019-04-29T07:07:08.696Z,16.75
2019-04-29T07:09:42.423Z,14.40
2019-04-29T07:12:16.150Z,13.00
2019-04-29T07:14:49.852Z,17.50
2019-04-29T07:17:23.601Z,12.75
2019-04-29T07:19:57.500Z,12.80
2019-04-29T07:22:32.711Z,13.00
2019-04-29T07:25:06.434Z,15.20
2019-04-29T07:27:43.393Z,13.00
2019-04-29T07:30:15.592Z,11.25
2019-04-29T07:32:49.302Z,13.40
2019-04-29T07:35:23.062Z,12.25
2019-04-29T07:37:56.755Z,13.50
2019-04-29T07:40:30.456Z,13.75
2019-04-29T07:43:07.697Z,10.50
2019-04-29T07:45:44.455Z,10.25
2019-04-29T07:48:15.021Z,10.50
2019-04-29T07:50:48.795Z,8.50
2019-04-29T07:53:35.024Z,10.00
2019-04-29T07:56:01.722Z,9.00
2019-04-29T07:58:33.391Z,9.40
2019-04-29T08:01:07.081Z,10.75
2019-04-29T08:03:40.783Z,7.00
2019-04-29T08:06:14.511Z,9.60
2019-04-29T08:08:55.144Z,10.00
2019-04-29T08:11:23.903Z,9.75
2019-04-29T08:13:57.893Z,9.20
2019-04-29T08:16:31.599Z,10.00
2019-04-29T08:19:05.552Z,10.50
2019-04-29T08:21:39.435Z,9.00
2019-04-29T08:24:15.823Z,10.00
2019-04-29T08:26:49.165Z,10.25
2019-04-29T08:29:22.889Z,12.00
2019-04-29T08:32:00.013Z,14.00
2019-04-29T08:34:32.010Z,11.50
2019-04-29T08:37:05.813Z,13.50
2019-04-29T08:39:39.534Z,11.00
2019-04-29T08:42:14.053Z,14.20
2019-04-29T08:44:47.776Z,12.80
2019-04-29T08:47:22.928Z,12.00
2019-04-29T08:49:56.897Z,11.00
2019-04-29T08:52:30.623Z,11.50
2019-04-29T08:55:04.604Z,11.25
2019-04-29T08:57:38.311Z,11.75
2019-04-29T09:00:12.112Z,11.60
2019-04-29T09:02:47.339Z,11.80
2019-04-29T09:05:21.252Z,12.25
2019-04-29T09:07:57.314Z,10.75
2019-04-29T09:10:32.979Z,12.00
2019-04-29T09:13:05.942Z,11.00
2019-04-29T09:15:39.665Z,10.00
2019-04-29T09:18:13.383Z,11.75
2019-04-29T09:20:47.168Z,12.00
2019-04-29T09:23:20.893Z,12.00
2019-04-29T09:26:02.426Z,12.75
2019-04-29T09:28:30.120Z,16.00
2019-04-29T09:31:04.096Z,13.60
2019-04-29T09:33:37.806Z,13.60
2019-04-29T09:36:13.968Z,15.00
2019-04-29T09:38:46.998Z,15.20
2019-04-29T09:41:20.698Z,15.25
2019-04-29T09:43:54.427Z,16.75
2019-04-29T09:46:29.983Z,17.00
2019-04-29T09:49:03.547Z,17.00
2019-04-29T09:51:37.293Z,16.00
2019-04-29T09:54:14.517Z,17.00
2019-04-29T09:56:46.534Z,17.25
2019-04-29T09:59:20.283Z,18.00
2019-04-29T10:01:55.093Z,17.00
2019-04-29T10:04:29.553Z,14.75
2019-04-29T10:07:03.449Z,16.25
2019-04-29T10:09:37.205Z,13.40
2019-04-29T10:12:11.007Z,13.75
2019-04-29T10:14:44.847Z,17.00
2019-04-29T10:17:18.694Z,17.00
2019-04-29T10:19:53.007Z,14.25
2019-04-29T10:22:26.812Z,16.75
2019-04-29T10:25:00.739Z,17.25
2019-04-29T10:27:34.468Z,16.50
2019-04-29T10:30:08.367Z,16.00
2019-04-29T10:32:42.614Z,15.00
2019-04-29T10:35:17.453Z,15.60
2019-04-29T10:37:51.270Z,15.40
2019-04-29T10:40:25.022Z,16.75
2019-04-29T10:42:58.785Z,12.75
2019-04-29T10:45:32.591Z,15.00
2019-04-29T10:48:06.328Z,15.20
2019-04-29T10:50:40.092Z,12.75
2019-04-29T10:53:15.521Z,15.25
2019-04-29T10:55:49.417Z,17.00
2019-04-29T10:58:29.825Z,16.00
2019-04-29T11:01:18.673Z,16.25
2019-04-29T11:03:55.943Z,16.00
2019-04-29T11:06:31.284Z,17.25
2019-04-29T11:09:04.800Z,14.75
2019-04-29T11:11:38.527Z,16.60
2019-04-29T11:14:12.236Z,17.75
2019-04-29T11:16:46.944Z,17.50
2019-04-29T11:19:20.940Z,17.00
2019-04-29T11:21:54.662Z,19.00
2019-04-29T11:24:28.417Z,17.40
2019-04-29T11:27:11.632Z,18.00
2019-04-29T11:29:37.562Z,21.00
2019-04-29T11:32:11.452Z,20.25
2019-04-29T11:34:48.336Z,19.25
2019-04-29T11:37:23.720Z,18.75
2019-04-29T11:39:57.257Z,22.50
2019-04-29T11:42:31.868Z,22.25
2019-04-29T11:45:06.579Z,22.00
2019-04-29T11:47:40.298Z,23.00
2019-04-29T11:50:14.203Z,22.25
2019-04-29T11:52:48.243Z,22.00
2019-04-29T11:55:22.028Z,25.00
2019-04-29T11:57:55.757Z,24.00
2019-04-29T12:00:29.483Z,22.25
2019-04-29T12:03:03.194Z,19.75
2019-04-29T12:05:40.137Z,23.00
2019-04-29T12:08:17.074Z,21.25
2019-04-29T12:11:05.674Z,23.80
2019-04-29T12:13:27.070Z,21.50
2019-04-29T12:15:58.707Z,23.20
2019-04-29T12:18:34.022Z,21.50
2019-04-29T12:21:07.953Z,23.50
2019-04-29T12:23:41.690Z,21.00
2019-04-29T12:26:15.569Z,23.25
2019-04-29T12:28:49.338Z,22.00
2019-04-29T12:31:26.093Z,21.25
2019-04-29T12:34:00.880Z,21.00
2019-04-29T12:36:36.789Z,24.20
2019-04-29T12:39:10.076Z,21.75
2019-04-29T12:41:48.890Z,24.00
2019-04-29T12:44:19.248Z,20.75
2019-04-29T12:46:52.975Z,20.00
2019-04-29T12:49:26.718Z,21.40
2019-04-29T12:52:00.523Z,21.00
2019-04-29T12:54:34.245Z,24.50
2019-04-29T12:57:07.954Z,20.00
2019-04-29T12:59:41.802Z,22.20
2019-04-29T13:02:15.631Z,23.00
2019-04-29T13:04:50.339Z,21.00
2019-04-29T13:07:24.754Z,23.00
2019-04-29T13:10:02.160Z,21.00
2019-04-29T13:12:33.914Z,31.00
2019-04-29T13:15:12.126Z,26.50
2019-04-29T13:17:43.110Z,24.75
2019-04-29T13:20:16.812Z,21.50
2019-04-29T13:22:50.534Z,20.50
2019-04-29T13:25:26.838Z,20.25
2019-04-29T13:28:04.051Z,22.75
2019-04-29T13:30:35.140Z,21.50
2019-04-29T13:33:16.386Z,21.75
2019-04-29T13:35:49.571Z,21.50
2019-04-29T13:38:19.671Z,20.50
2019-04-29T13:41:11.818Z,21.75
2019-04-29T13:43:28.816Z,22.75
2019-04-29T13:46:05.244Z,20.50
2019-04-29T13:48:54.679Z,24.60
2019-04-29T13:51:13.352Z,19.75
2019-04-29T13:53:47.067Z,20.80
2019-04-29T13:56:35.111Z,22.25
2019-04-29T13:58:58.741Z,21.40
2019-04-29T14:01:33.476Z,18.00
2019-04-29T14:04:07.027Z,20.00
2019-04-29T14:06:40.729Z,21.25
2019-04-29T14:09:14.467Z,21.00
2019-04-29T14:12:01.042Z,21.60
2019-04-29T14:14:24.641Z,21.75
2019-04-29T14:18:53.558Z,24.50
2019-04-29T14:19:40.818Z,23.75
2019-04-29T14:22:21.485Z,24.20
2019-04-29T14:24:47.057Z,23.00
2019-04-29T14:27:25.178Z,23.25
2019-04-29T14:29:56.544Z,22.25
2019-04-29T14:32:36.074Z,19.00
2019-04-29T14:35:07.093Z,19.75
2019-04-29T14:37:54.573Z,19.00
2019-04-29T14:40:17.768Z,17.00
2019-04-29T14:42:57.861Z,16.40
2019-04-29T14:45:29.843Z,14.50
2019-04-29T14:48:04.178Z,17.50
2019-04-29T14:50:37.981Z,11.00
2019-04-29T14:53:11.682Z,12.50
2019-04-29T14:55:45.411Z,11.00
2019-04-29T14:58:19.140Z,11.00
2019-04-29T15:00:52.925Z,13.60
2019-04-29T15:03:27.210Z,11.00
2019-04-29T15:06:06.549Z,10.00
2019-04-29T15:08:40.296Z,10.80
2019-04-29T15:11:14.079Z,10.00
2019-04-29T15:13:48.848Z,9.75
2019-04-29T15:16:22.941Z,10.50
2019-04-29T15:18:56.665Z,10.50
2019-04-29T15:21:32.656Z,10.00
2019-04-29T15:24:05.939Z,11.00
2019-04-29T15:26:39.675Z,12.00
2019-04-29T15:29:13.551Z,10.00
2019-04-29T15:31:48.979Z,11.80
2019-04-29T15:34:22.814Z,12.00
2019-04-29T15:36:56.557Z,9.60
2019-04-29T15:39:30.456Z,11.00
2019-04-29T15:42:06.681Z,10.80
2019-04-29T15:44:39.751Z,12.00
2019-04-29T15:47:13.818Z,11.40
2019-04-29T15:49:47.557Z,10.75
2019-04-29T15:52:25.948Z,10.25
2019-04-29T15:54:56.711Z,9.25
2019-04-29T15:57:30.665Z,9.40
2019-04-29T16:00:21.513Z,11.50
2019-04-29T16:02:44.224Z,9.75
2019-04-29T16:05:18.465Z,11.40
2019-04-29T16:07:55.806Z,12.00
2019-04-29T16:10:27.621Z,10.75
2019-04-29T16:13:01.362Z,11.00
2019-04-29T16:15:35.491Z,13.25
2019-04-29T16:18:10.719Z,11.50
2019-04-29T16:20:44.859Z,11.00
2019-04-29T16:23:19.940Z,11.20
2019-04-29T16:25:54.498Z,12.00
2019-04-29T16:28:31.772Z,8.00
2019-04-29T16:31:05.024Z,10.00
2019-04-29T16:33:39.522Z,12.00
2019-04-29T16:36:14.204Z,10.60
2019-04-29T16:38:51.394Z,10.20
2019-04-29T16:41:25.707Z,10.00
2019-04-29T16:43:59.409Z,9.00
2019-04-29T16:46:37.603Z,11.50
2019-04-29T16:49:08.576Z,11.50
2019-04-29T16:51:42.320Z,10.50
2019-04-29T16:54:20.560Z,11.00
2019-04-29T16:56:51.400Z,11.25
2019-04-29T16:59:25.168Z,11.50
2019-04-29T17:02:00.530Z,12.20
2019-04-29T17:04:34.280Z,10.50
2019-04-29T17:07:13.056Z,13.20
2019-04-29T17:09:43.488Z,13.50
2019-04-29T17:12:17.204Z,15.20
2019-04-29T17:15:04.184Z,15.00
2019-04-29T17:17:29.174Z,16.50
2019-04-29T17:20:01.906Z,12.00
2019-04-29T17:22:42.728Z,15.25
2019-04-29T17:25:11.046Z,16.00
2019-04-29T17:27:45.406Z,17.25
2019-04-29T17:30:19.282Z,18.25
2019-04-29T17:32:55.267Z,16.00
2019-04-29T17:35:29.725Z,18.50
2019-04-29T17:38:03.433Z,20.75
2019-04-29T17:40:37.165Z,17.25
2019-04-29T17:43:10.872Z,18.25
2019-04-29T17:45:52.689Z,18.00
2019-04-29T17:48:26.409Z,17.50
2019-04-29T17:51:00.262Z,20.20
2019-04-29T17:53:35.460Z,20.40
2019-04-29T17:56:09.339Z,20.25
2019-04-29T17:58:43.960Z,19.20
2019-04-29T18:01:18.494Z,21.33
2019-04-29T18:03:52.271Z,21.20
2019-04-29T18:06:28.195Z,20.00
2019-04-29T18:09:01.417Z,23.00
2019-04-29T18:11:48.880Z,21.60
2019-04-29T18:14:10.810Z,22.25
2019-04-29T18:16:47.850Z,22.50
2019-04-29T18:19:20.567Z,19.75
2019-04-29T18:21:56.048Z,22.00
2019-04-29T18:24:35.966Z,24.25
2019-04-29T18:27:05.374Z,21.80
2019-04-29T18:29:41.556Z,23.50
2019-04-29T18:32:15.532Z,25.00
2019-04-29T18:34:49.455Z,25.00
2019-04-29T18:37:24.904Z,22.75
2019-04-29T18:40:02.203Z,22.25
2019-04-29T18:42:34.190Z,26.00
2019-04-29T18:45:07.909Z,25.00
2019-04-29T18:47:41.635Z,26.25
2019-04-29T18:50:15.909Z,23.80
2019-04-29T18:52:49.710Z,25.25
2019-04-29T18:55:23.446Z,25.50
2019-04-29T18:57:58.477Z,24.20
2019-04-29T19:00:32.312Z,22.50
2019-04-29T19:03:06.558Z,22.00
2019-04-29T19:05:40.528Z,30.40
2019-04-29T19:08:19.168Z,27.75
2019-04-29T19:10:51.111Z,28.00
2019-04-29T19:13:26.041Z,31.00
2019-04-29T19:16:09.476Z,29.00
2019-04-29T19:18:35.453Z,25.20
2019-04-29T19:21:09.176Z,25.50
2019-04-29T19:23:42.934Z,26.50
2019-04-29T19:26:18.225Z,27.25
2019-04-29T19:28:52.155Z,24.25
2019-04-29T19:31:25.882Z,25.50
2019-04-29T19:33:59.629Z,25.00
2019-04-29T19:36:35.251Z,24.25
2019-04-29T19:39:08.766Z,24.75
2019-04-29T19:41:42.469Z,25.00
2019-04-29T19:44:16.198Z,25.00
2019-04-29T19:46:49.937Z,25.25
2019-04-29T19:49:25.715Z,24.50
2019-04-29T19:51:59.157Z,24.00
2019-04-29T19:54:32.961Z,24.75
2019-04-29T19:57:07.612Z,25.00
2019-04-29T19:59:50.581Z,25.00
2019-04-29T20:02:17.592Z,24.60
2019-04-29T20:04:53.770Z,23.75
2019-04-29T20:07:28.059Z,26.50
2019-04-29T20:10:05.750Z,26.00
2019-04-29T20:12:38.958Z,25.00
2019-04-29T20:15:13.412Z,26.25
2019-04-29T20:17:49.577Z,25.00
2019-04-29T20:20:25.274Z,25.00
2019-04-29T20:22:59.453Z,23.75
2019-04-29T20:25:38.077Z,25.00
2019-04-29T20:28:13.164Z,25.00
2019-04-29T20:30:45.692Z,23.75
2019-04-29T20:33:19.916Z,24.60
2019-04-29T20:35:55.815Z,22.00
2019-04-29T20:38:29.953Z,17.50
2019-04-29T20:41:07.691Z,25.00
2019-04-29T20:43:40.392Z,26.00
2019-04-29T20:46:15.949Z,24.25
2019-04-29T20:48:50.475Z,25.00
2019-04-29T20:51:32.199Z,22.00
2019-04-29T20:54:00.723Z,24.50
2019-04-29T20:56:35.378Z,24.50
2019-04-29T20:59:12.670Z,24.00
2019-04-29T21:01:45.065Z,24.50
2019-04-29T21:04:31.098Z,24.25
2019-04-29T21:07:01.908Z,24.00
2019-04-29T21:09:30.332Z,25.00
2019-04-29T21:12:04.479Z,20.25
2019-04-29T21:14:38.357Z,25.00
2019-04-29T21:17:26.141Z,23.20
2019-04-29T21:19:48.689Z,22.25
2019-04-29T21:22:23.723Z,20.00
2019-04-29T21:24:57.824Z,22.00
2019-04-29T21:27:31.568Z,24.00
2019-04-29T21:30:05.634Z,25.50
2019-04-29T21:32:39.369Z,22.25
2019-04-29T21:35:17.187Z,23.40
2019-04-29T21:37:48.617Z,26.00
2019-04-29T21:40:24.238Z,25.00
2019-04-29T21:42:57.775Z,25.00
2019-04-29T21:45:31.480Z,23.50
2019-04-29T21:48:05.205Z,25.00
2019-04-29T21:50:38.919Z,25.80
2019-04-29T21:53:14.941Z,24.80
2019-04-29T21:55:48.918Z,21.00
2019-04-29T21:58:22.633Z,25.00
2019-04-29T22:00:59.071Z,25.00
2019-04-29T22:03:32.048Z,24.50
2019-04-29T22:06:05.905Z,22.75
2019-04-29T22:08:39.716Z,24.00
2019-04-29T22:11:13.531Z,24.20
2019-04-29T22:13:47.240Z,25.00
2019-04-29T22:16:20.953Z,25.50
2019-04-29T22:18:55.377Z,25.00
2019-04-29T22:21:29.261Z,24.25
2019-04-29T22:24:02.990Z,22.50
2019-04-29T22:26:36.709Z,24.00
2019-04-29T22:29:10.415Z,24.20
2019-04-29T22:31:45.870Z,25.00
2019-04-29T22:34:19.800Z,23.00
2019-04-29T22:36:58.381Z,21.80
2019-04-29T22:39:30.200Z,22.50
2019-04-29T22:42:04.122Z,24.50
2019-04-29T22:44:37.836Z,22.00
2019-04-29T22:47:11.561Z,25.00
2019-04-29T22:49:45.455Z,21.00
2019-04-29T22:52:20.526Z,24.25
2019-04-29T22:54:57.955Z,21.50
2019-04-29T22:57:31.593Z,18.75
2019-04-29T23:00:08.094Z,24.00
2019-04-29T23:02:41.832Z,25.00
2019-04-29T23:05:15.554Z,22.20
2019-04-29T23:07:52.885Z,23.25
2019-04-29T23:10:27.833Z,25.00
2019-04-29T23:13:00.104Z,25.00
2019-04-29T23:15:35.554Z,25.00
2019-04-29T23:18:09.236Z,26.25
2019-04-29T23:20:42.947Z,20.75
2019-04-29T23:23:16.668Z,22.25
2019-04-29T23:25:50.407Z,24.40
2019-04-29T23:28:26.926Z,25.00
2019-04-29T23:30:59.544Z,20.40
2019-04-29T23:33:33.279Z,20.50
2019-04-29T23:36:09.715Z,24.50
2019-04-29T23:38:43.061Z,24.00
2019-04-29T23:41:17.896Z,25.00
2019-04-29T23:43:51.602Z,21.75
2019-04-29T23:46:25.323Z,24.00
2019-04-29T23:49:03.356Z,20.50
2019-04-29T23:51:37.602Z,24.00
2019-04-29T23:54:09.890Z,21.25
2019-04-29T23:56:46.253Z,19.80
2019-04-29T23:59:19.096Z,24.75
